Quick Links (Output Below):   Max & Min Temps   /   Climate Reports   /   Zone Forecasts
River Forecasts   /   Forestry Forecasts   /   Aviation Forecasts   /   Radars   /   Features

Terminal Aerodrome Forecast (Monticello)

Pick a Site:
Arkadelphia | El Dorado | Fayetteville | Fort Smith | Harrison | Highfill | Hot Springs | Jonesboro
Little Rock | Monticello | Mountain Home | Pine Bluff | Texarkana
 Forecast 

KLLQ 272320Z 2800/2824 VRB03KT P6SM SKC
     FM281400 21004KT P6SM SKC=


 Latest METARs (Observations) 
How to Decode METARs
01Z KLLQ 280053Z AUTO 00000KT 10SM CLR 33/25 A2991 RMK AO2 SLP124
         T03280250
         
00Z KLLQ 272353Z AUTO 12004KT 10SM CLR 35/24 A2990 RMK AO2 SLP120
         T03500239 10372 20339 56006
         
***** Today's Observations (Above) *****


23Z KLLQ 272253Z AUTO 11006KT 10SM CLR 36/24 A2990 RMK AO2 SLP121
         T03610244
         
22Z KLLQ 272153Z AUTO VRB05KT 10SM CLR 36/24 A2991 RMK AO2 SLP123
         T03610244
         
21Z KLLQ 272053Z AUTO 18005KT 10SM SCT055 36/23 A2992 RMK AO2 SLP126
         T03610228 56014
         
20Z KLLQ 271953Z AUTO 13006KT 10SM CLR 37/23 A2993 RMK AO2 SLP130
         T03670233
         
19Z KLLQ 271853Z AUTO 00000KT 10SM FEW048 BKN080 34/23 A2995 RMK AO2
         SLP136 T03440233
         
18Z KLLQ 271753Z AUTO 36004KT 10SM OVC045 34/23 A2996 RMK AO2 SLP140
         T03440233 10361 20244 58004
         
17Z KLLQ 271653Z AUTO VRB03KT 10SM SCT045 34/24 A2997 RMK AO2 SLP143
         T03440239
         
16Z KLLQ 271553Z AUTO 16006KT 10SM CLR 34/23 A2997 RMK AO2 SLP145
         T03390228
         
***** Yesterday's Observations (Above) *****


Back to Main Page
http://www.srh.noaa.gov/lzk/qfcst.php

USA.gov is the U.S. government's official web portal to all federal, state and local government web resources and services.